createdAt,value
2022-10-18T00:01:02.208Z,68.60
2022-10-18T00:02:35.881Z,68.50
2022-10-18T00:04:09.475Z,68.40
2022-10-18T00:05:41.965Z,68.40
2022-10-18T00:07:15.300Z,68.40
2022-10-18T00:08:49.490Z,68.40
2022-10-18T00:10:24.551Z,68.40
2022-10-18T00:11:59.424Z,68.40
2022-10-18T00:13:34.050Z,68.40
2022-10-18T00:15:10.149Z,68.20
2022-10-18T00:16:43.532Z,68.10
2022-10-18T00:18:16.984Z,68.10
2022-10-18T00:19:50.375Z,68.20
2022-10-18T00:21:25.869Z,68.10
2022-10-18T00:22:59.215Z,68.40
2022-10-18T00:24:32.515Z,68.40
2022-10-18T00:26:08.523Z,68.60
2022-10-18T00:27:43.544Z,68.60
2022-10-18T00:29:18.990Z,68.60
2022-10-18T00:30:51.327Z,68.70
2022-10-18T00:32:24.994Z,68.60
2022-10-18T00:34:03.156Z,68.70
2022-10-18T00:35:35.396Z,68.50
2022-10-18T00:37:09.035Z,68.50
2022-10-18T00:38:42.634Z,68.50
2022-10-18T00:40:16.031Z,68.50
2022-10-18T00:41:50.238Z,68.50
2022-10-18T00:43:23.954Z,68.50
2022-10-18T00:45:16.243Z,68.50
2022-10-18T00:46:51.823Z,68.50
2022-10-18T00:48:25.455Z,68.50
2022-10-18T00:50:04.651Z,68.50
2022-10-18T00:51:44.123Z,68.50
2022-10-18T00:53:23.298Z,68.40
2022-10-18T00:54:57.390Z,68.40
2022-10-18T00:56:31.471Z,68.50
2022-10-18T00:58:06.922Z,68.40
2022-10-18T00:59:42.416Z,68.40
2022-10-18T01:01:25.820Z,68.40
2022-10-18T01:03:07.043Z,68.50
2022-10-18T01:04:45.131Z,68.50
2022-10-18T01:06:22.935Z,68.50
2022-10-18T01:08:22.234Z,68.60
2022-10-18T01:10:14.258Z,68.80
2022-10-18T01:12:23.056Z,68.80
2022-10-18T01:14:18.413Z,69.00
2022-10-18T01:16:04.114Z,68.80
2022-10-18T01:17:57.105Z,68.60
2022-10-18T01:20:08.220Z,68.70
2022-10-18T01:21:51.163Z,68.80
2022-10-18T01:23:50.197Z,68.50
2022-10-18T01:25:47.360Z,68.70
2022-10-18T01:27:46.395Z,68.90
2022-10-18T01:29:36.684Z,68.90
2022-10-18T01:31:16.701Z,68.70
2022-10-18T01:32:54.185Z,68.80
2022-10-18T01:34:34.693Z,68.80
2022-10-18T01:36:18.565Z,68.80
2022-10-18T01:37:56.293Z,69.00
2022-10-18T01:39:35.944Z,69.00
2022-10-18T01:41:15.625Z,69.00
2022-10-18T01:42:51.186Z,69.00
2022-10-18T01:44:28.101Z,69.00
2022-10-18T01:46:03.199Z,69.20
2022-10-18T01:47:38.232Z,69.00
2022-10-18T01:49:11.611Z,69.20
2022-10-18T01:50:45.011Z,69.10
2022-10-18T01:52:18.368Z,69.20
2022-10-18T01:53:52.011Z,69.30
2022-10-18T01:55:33.324Z,69.30
2022-10-18T01:57:13.460Z,69.40
2022-10-18T01:59:01.968Z,69.40
2022-10-18T02:00:44.436Z,69.30
2022-10-18T02:02:34.519Z,69.30
2022-10-18T02:04:25.624Z,69.30
2022-10-18T02:06:06.475Z,69.30
2022-10-18T02:07:55.329Z,69.20
2022-10-18T02:09:50.249Z,69.30
2022-10-18T02:11:22.944Z,69.20
2022-10-18T02:12:58.527Z,69.20
2022-10-18T02:14:33.995Z,69.30
2022-10-18T02:16:12.968Z,69.30
2022-10-18T02:17:46.419Z,69.40
2022-10-18T02:19:31.079Z,69.50
2022-10-18T02:21:08.263Z,69.40
2022-10-18T02:22:45.915Z,69.40
2022-10-18T02:24:21.038Z,69.40
2022-10-18T02:25:55.053Z,69.50
2022-10-18T02:27:28.495Z,69.50
2022-10-18T02:29:02.621Z,69.30
2022-10-18T02:30:45.676Z,69.50
2022-10-18T02:32:27.408Z,69.50
2022-10-18T02:34:09.423Z,69.40
2022-10-18T02:35:49.907Z,69.40
2022-10-18T02:37:23.729Z,69.50
2022-10-18T02:39:07.234Z,69.30
2022-10-18T02:40:40.482Z,69.40
2022-10-18T02:42:15.732Z,69.40
2022-10-18T02:43:47.979Z,69.50
2022-10-18T02:45:21.488Z,69.40
2022-10-18T02:46:54.552Z,69.50
2022-10-18T02:48:27.808Z,69.40
2022-10-18T02:50:01.060Z,69.40
2022-10-18T02:51:35.883Z,69.40
2022-10-18T02:53:09.104Z,69.40
2022-10-18T02:54:42.344Z,69.50
2022-10-18T02:56:16.535Z,69.40
2022-10-18T02:57:49.960Z,69.40
2022-10-18T02:59:56.097Z,69.40
2022-10-18T03:01:29.741Z,69.40
2022-10-18T03:03:03.139Z,69.30
2022-10-18T03:04:35.633Z,69.50
2022-10-18T03:06:08.965Z,69.40
2022-10-18T03:07:43.864Z,69.40
2022-10-18T03:09:17.053Z,69.40
2022-10-18T03:10:49.439Z,69.50
2022-10-18T03:12:22.728Z,69.50
2022-10-18T03:13:56.092Z,69.60
2022-10-18T03:15:28.517Z,69.60
2022-10-18T03:17:05.036Z,69.60
2022-10-18T03:18:38.323Z,69.50
2022-10-18T03:20:13.780Z,69.60
2022-10-18T03:21:46.996Z,69.60
2022-10-18T03:23:20.708Z,69.50
2022-10-18T03:24:54.231Z,69.50
2022-10-18T03:26:27.692Z,69.50
2022-10-18T03:28:00.006Z,69.50
2022-10-18T03:29:33.410Z,69.60
2022-10-18T03:31:06.199Z,69.50
2022-10-18T03:32:40.070Z,69.50
2022-10-18T03:34:13.275Z,69.50
2022-10-18T03:35:45.619Z,69.40
2022-10-18T03:37:18.853Z,69.60
2022-10-18T03:38:53.693Z,69.40
2022-10-18T03:40:27.307Z,69.50
2022-10-18T03:42:00.640Z,69.50
2022-10-18T03:43:33.901Z,69.50
2022-10-18T03:45:08.994Z,69.50
2022-10-18T03:46:42.343Z,70.20
2022-10-18T03:48:15.823Z,69.40
2022-10-18T03:49:52.009Z,69.40
2022-10-18T03:51:28.002Z,69.40
2022-10-18T03:53:00.234Z,69.30
2022-10-18T03:54:35.098Z,69.40
2022-10-18T03:56:08.519Z,69.30
2022-10-18T03:57:42.526Z,69.40
2022-10-18T03:59:16.983Z,69.30
2022-10-18T04:00:51.812Z,69.30
2022-10-18T04:02:25.315Z,69.40
2022-10-18T04:03:57.551Z,69.50
2022-10-18T04:05:31.458Z,69.40
2022-10-18T04:07:04.931Z,69.30
2022-10-18T04:08:38.983Z,69.30
2022-10-18T04:10:13.529Z,69.30
2022-10-18T04:11:46.910Z,69.30
2022-10-18T04:13:19.355Z,69.30
2022-10-18T04:14:54.600Z,69.40
2022-10-18T04:16:29.210Z,69.40
2022-10-18T04:18:03.468Z,69.40
2022-10-18T04:19:36.836Z,69.40
2022-10-18T04:21:10.149Z,69.40
2022-10-18T04:22:43.540Z,69.40
2022-10-18T04:24:18.571Z,69.40
2022-10-18T04:25:52.499Z,69.40
2022-10-18T04:27:26.296Z,69.30
2022-10-18T04:28:59.690Z,69.30
2022-10-18T04:30:33.155Z,69.30
2022-10-18T04:32:06.968Z,69.40
2022-10-18T04:33:40.732Z,69.40
2022-10-18T04:35:14.094Z,69.40
2022-10-18T04:36:47.300Z,69.40
2022-10-18T04:38:21.155Z,69.50
2022-10-18T04:39:54.681Z,69.40
2022-10-18T04:41:29.475Z,69.50
2022-10-18T04:43:02.791Z,69.40
2022-10-18T04:44:36.437Z,69.40
2022-10-18T04:46:09.742Z,69.50
2022-10-18T04:47:43.242Z,69.40
2022-10-18T04:49:16.692Z,69.50
2022-10-18T04:50:51.221Z,69.70
2022-10-18T04:52:24.542Z,69.60
2022-10-18T04:53:58.302Z,69.60
2022-10-18T04:55:31.598Z,69.60
2022-10-18T04:57:05.523Z,69.70
2022-10-18T04:58:38.880Z,69.80
2022-10-18T05:00:14.400Z,69.80
2022-10-18T05:01:47.739Z,69.80
2022-10-18T05:03:21.340Z,69.80
2022-10-18T05:04:54.630Z,69.90
2022-10-18T05:06:27.923Z,69.90
2022-10-18T05:08:01.702Z,69.90
2022-10-18T05:09:35.170Z,70.10
2022-10-18T05:12:49.365Z,70.00
2022-10-18T05:14:22.707Z,70.00
2022-10-18T05:15:56.403Z,70.00
2022-10-18T05:17:29.658Z,70.10
2022-10-18T05:19:05.188Z,70.00
2022-10-18T05:20:38.612Z,70.10
2022-10-18T05:22:11.965Z,70.80
2022-10-18T05:23:45.679Z,69.90
2022-10-18T05:25:19.174Z,70.00
2022-10-18T05:26:52.428Z,69.80
2022-10-18T05:28:39.183Z,69.80
2022-10-18T05:30:13.667Z,69.80
2022-10-18T05:31:47.108Z,69.80
2022-10-18T05:33:22.171Z,69.80
2022-10-18T05:34:55.468Z,69.80
2022-10-18T05:36:29.157Z,69.90
2022-10-18T05:38:03.976Z,69.90
2022-10-18T05:39:38.942Z,70.00
2022-10-18T05:41:13.553Z,70.00
2022-10-18T05:42:46.843Z,70.10
2022-10-18T05:44:21.664Z,70.10
2022-10-18T05:45:55.042Z,70.10
2022-10-18T05:47:28.426Z,70.10
2022-10-18T05:49:01.806Z,70.10
2022-10-18T05:50:38.077Z,70.20
2022-10-18T05:52:13.539Z,70.30
2022-10-18T05:53:47.140Z,70.20
2022-10-18T05:55:19.572Z,70.20
2022-10-18T05:56:53.237Z,70.20
2022-10-18T05:58:26.514Z,70.30
2022-10-18T06:00:01.166Z,70.20
2022-10-18T06:01:34.584Z,70.30
2022-10-18T06:03:08.832Z,70.20
2022-10-18T06:04:42.047Z,70.30
2022-10-18T06:06:16.463Z,70.30
2022-10-18T06:07:49.674Z,70.40
2022-10-18T06:09:23.351Z,70.40
2022-10-18T06:10:57.171Z,70.40
2022-10-18T06:12:30.720Z,70.40
2022-10-18T06:14:04.981Z,70.40
2022-10-18T06:15:39.668Z,70.40
2022-10-18T06:17:12.984Z,70.40
2022-10-18T06:18:49.985Z,70.40
2022-10-18T06:20:23.258Z,70.50
2022-10-18T06:21:56.575Z,70.50
2022-10-18T06:23:30.267Z,70.60
2022-10-18T06:25:03.830Z,70.60
2022-10-18T06:26:37.232Z,70.70
2022-10-18T06:28:12.201Z,70.60
2022-10-18T06:29:45.851Z,70.80
2022-10-18T06:31:21.638Z,70.70
2022-10-18T06:32:54.978Z,70.70
2022-10-18T06:34:28.530Z,70.70
2022-10-18T06:36:05.195Z,70.90
2022-10-18T06:37:38.627Z,70.80
2022-10-18T06:39:12.199Z,70.80
2022-10-18T06:40:48.171Z,70.70
2022-10-18T06:42:22.698Z,70.70
2022-10-18T06:43:58.528Z,70.70
2022-10-18T06:45:32.705Z,70.80
2022-10-18T06:47:09.388Z,70.70
2022-10-18T06:48:42.677Z,70.80
2022-10-18T06:50:16.311Z,70.80
2022-10-18T06:51:49.540Z,70.70
2022-10-18T06:53:22.912Z,70.70
2022-10-18T06:54:56.227Z,70.80
2022-10-18T06:56:30.043Z,70.90
2022-10-18T06:58:03.328Z,70.90
2022-10-18T06:59:36.730Z,70.80
2022-10-18T07:01:12.973Z,70.80
2022-10-18T07:02:47.772Z,71.00
2022-10-18T07:04:21.486Z,71.00
2022-10-18T07:05:54.751Z,70.90
2022-10-18T07:07:28.099Z,71.00
2022-10-18T07:09:02.987Z,70.80
2022-10-18T07:10:36.532Z,71.10
2022-10-18T07:12:11.971Z,70.90
2022-10-18T07:13:46.019Z,71.10
2022-10-18T07:15:19.889Z,71.90
2022-10-18T07:16:53.448Z,71.10
2022-10-18T07:18:27.827Z,71.10
2022-10-18T07:20:01.179Z,71.00
2022-10-18T07:21:34.747Z,71.10
2022-10-18T07:23:09.487Z,71.10
2022-10-18T07:24:43.048Z,71.10
2022-10-18T07:26:19.494Z,71.10
2022-10-18T07:27:53.108Z,71.10
2022-10-18T07:29:26.597Z,71.10
2022-10-18T07:31:06.408Z,71.30
2022-10-18T07:32:39.740Z,71.50
2022-10-18T07:34:14.943Z,71.40
2022-10-18T07:35:48.823Z,71.50
2022-10-18T07:37:25.386Z,71.60
2022-10-18T07:39:01.305Z,71.60
2022-10-18T07:40:34.824Z,71.80
2022-10-18T07:42:08.311Z,71.80
2022-10-18T07:43:44.388Z,71.80
2022-10-18T07:45:18.277Z,71.80
2022-10-18T07:46:51.522Z,71.90
2022-10-18T07:48:25.650Z,71.90
2022-10-18T07:50:00.877Z,72.00
2022-10-18T07:51:36.013Z,72.10
2022-10-18T07:53:09.241Z,72.10
2022-10-18T07:54:42.570Z,72.20
2022-10-18T07:56:21.232Z,72.10
2022-10-18T07:57:54.624Z,72.20
2022-10-18T07:59:28.109Z,72.10
2022-10-18T08:01:04.553Z,72.00
2022-10-18T08:02:38.542Z,72.10
2022-10-18T08:04:16.192Z,72.10
2022-10-18T08:05:56.657Z,72.00
2022-10-18T08:07:30.289Z,72.10
2022-10-18T08:09:04.014Z,72.00
2022-10-18T08:10:37.840Z,71.90
2022-10-18T08:12:11.455Z,72.00
2022-10-18T08:13:45.303Z,71.90
2022-10-18T08:15:18.828Z,72.00
2022-10-18T08:16:52.251Z,72.00
2022-10-18T08:18:25.592Z,71.90
2022-10-18T08:20:11.633Z,71.90
2022-10-18T08:21:53.683Z,72.00
2022-10-18T08:23:27.308Z,71.90
2022-10-18T08:25:00.794Z,71.90
2022-10-18T08:26:34.355Z,71.90
2022-10-18T08:28:08.609Z,72.00
2022-10-18T08:29:42.124Z,72.00
2022-10-18T08:31:19.868Z,72.00
2022-10-18T08:32:53.487Z,72.10
2022-10-18T08:34:27.179Z,72.00
2022-10-18T08:36:02.671Z,72.20
2022-10-18T08:37:37.520Z,72.20
2022-10-18T08:39:10.922Z,72.20
2022-10-18T08:40:45.204Z,72.10
2022-10-18T08:42:39.531Z,72.20
2022-10-18T08:44:20.638Z,72.20
2022-10-18T08:45:55.724Z,72.20
2022-10-18T08:47:37.583Z,72.20
2022-10-18T08:49:28.409Z,72.50
2022-10-18T08:51:04.338Z,72.50
2022-10-18T08:52:51.772Z,72.30
2022-10-18T08:54:36.114Z,72.30
2022-10-18T08:56:14.932Z,72.30
2022-10-18T08:57:50.749Z,72.30
2022-10-18T08:59:25.509Z,72.30
2022-10-18T09:01:13.944Z,72.30
2022-10-18T09:03:08.454Z,72.50
2022-10-18T09:04:53.551Z,72.70
2022-10-18T09:06:35.003Z,73.50
2022-10-18T09:08:38.240Z,72.70
2022-10-18T09:10:33.392Z,72.80
2022-10-18T09:12:35.962Z,72.70
2022-10-18T09:15:06.464Z,72.50
2022-10-18T09:16:50.435Z,72.60
2022-10-18T09:18:49.556Z,72.20
2022-10-18T09:20:27.659Z,72.20
2022-10-18T09:22:13.232Z,72.10
2022-10-18T09:23:50.366Z,72.20
2022-10-18T09:25:26.928Z,72.20
2022-10-18T09:27:06.646Z,72.20
2022-10-18T09:28:57.151Z,72.20
2022-10-18T09:30:44.719Z,72.40
2022-10-18T09:32:35.394Z,72.30
2022-10-18T09:34:22.287Z,72.40
2022-10-18T09:36:00.030Z,72.40
2022-10-18T09:37:35.971Z,72.40
2022-10-18T09:39:16.144Z,72.50
2022-10-18T09:40:57.491Z,72.70
2022-10-18T09:42:38.087Z,72.60
2022-10-18T09:44:20.490Z,72.80
2022-10-18T09:45:56.297Z,72.70
2022-10-18T09:47:38.161Z,72.70
2022-10-18T09:49:20.383Z,72.80
2022-10-18T09:51:01.799Z,72.90
2022-10-18T09:52:43.692Z,72.90
2022-10-18T09:54:32.280Z,72.90
2022-10-18T09:56:12.057Z,72.90
2022-10-18T09:57:53.277Z,72.90
2022-10-18T09:59:38.283Z,72.90
2022-10-18T10:01:16.463Z,73.20
2022-10-18T10:02:49.758Z,73.20
2022-10-18T10:04:23.290Z,73.20
2022-10-18T10:06:16.836Z,73.20
2022-10-18T10:07:50.526Z,73.80
2022-10-18T10:09:30.574Z,73.60
2022-10-18T10:11:04.008Z,74.50
2022-10-18T10:12:40.505Z,73.60
2022-10-18T10:14:23.037Z,73.60
2022-10-18T10:15:59.199Z,73.60
2022-10-18T10:17:33.941Z,73.60
2022-10-18T10:19:07.464Z,73.70
2022-10-18T10:20:46.574Z,73.60
2022-10-18T10:22:29.311Z,73.60
2022-10-18T10:24:04.171Z,73.40
2022-10-18T10:25:39.816Z,73.40
2022-10-18T10:27:22.432Z,73.40
2022-10-18T10:28:56.193Z,73.40
2022-10-18T10:30:33.366Z,73.30
2022-10-18T10:32:05.764Z,73.40
2022-10-18T10:33:39.983Z,73.40
2022-10-18T10:35:41.570Z,73.40
2022-10-18T10:37:36.112Z,73.20
2022-10-18T10:39:18.253Z,73.10
2022-10-18T10:40:53.520Z,73.00
2022-10-18T10:42:27.219Z,73.10
2022-10-18T10:44:06.220Z,73.30
2022-10-18T10:45:56.728Z,73.50
2022-10-18T10:47:33.427Z,73.60
2022-10-18T10:49:38.525Z,73.50
2022-10-18T10:51:07.256Z,73.40
2022-10-18T10:52:43.561Z,73.20
2022-10-18T10:54:21.432Z,73.30
2022-10-18T10:55:59.001Z,73.40
2022-10-18T10:57:33.628Z,73.40
2022-10-18T10:59:16.767Z,73.50
2022-10-18T11:00:50.150Z,73.40
2022-10-18T11:02:32.274Z,73.30
2022-10-18T11:04:28.794Z,73.30
2022-10-18T11:06:02.336Z,73.40
2022-10-18T11:07:42.327Z,73.10
2022-10-18T11:09:46.219Z,73.10
2022-10-18T11:11:27.685Z,73.30
2022-10-18T11:13:16.116Z,73.00
2022-10-18T11:15:00.519Z,73.20
2022-10-18T11:16:43.556Z,73.40
2022-10-18T11:18:25.018Z,73.30
2022-10-18T11:20:24.005Z,72.70
2022-10-18T11:21:59.476Z,72.80
2022-10-18T11:23:35.305Z,72.60
2022-10-18T11:25:16.617Z,72.60
2022-10-18T11:27:02.039Z,72.50
2022-10-18T11:28:59.155Z,72.50
2022-10-18T11:30:59.118Z,72.40
2022-10-18T11:32:43.769Z,72.20
2022-10-18T11:34:50.040Z,72.30
2022-10-18T11:36:33.978Z,72.80
2022-10-18T11:38:35.654Z,73.20
2022-10-18T11:40:36.359Z,73.10
2022-10-18T11:42:23.271Z,73.00
2022-10-18T11:44:03.351Z,72.10
2022-10-18T11:45:50.645Z,72.00
2022-10-18T11:47:37.954Z,71.90
2022-10-18T11:49:38.739Z,71.80
2022-10-18T11:51:29.787Z,71.60
2022-10-18T11:53:25.175Z,71.50
2022-10-18T11:55:20.071Z,71.30
2022-10-18T11:57:07.328Z,70.50
2022-10-18T11:59:03.036Z,70.50
2022-10-18T12:00:49.854Z,70.60
2022-10-18T12:03:04.179Z,70.60
2022-10-18T12:04:58.369Z,70.60
2022-10-18T12:06:44.058Z,70.50
2022-10-18T12:08:24.404Z,70.60
2022-10-18T12:10:00.450Z,70.60
2022-10-18T12:11:45.398Z,70.50
2022-10-18T12:13:26.680Z,70.30
2022-10-18T12:15:17.018Z,70.00
2022-10-18T12:16:58.425Z,69.90
2022-10-18T12:18:54.046Z,70.00
2022-10-18T12:20:34.531Z,70.00
2022-10-18T12:22:19.296Z,70.10
2022-10-18T12:23:59.654Z,70.10
2022-10-18T12:25:39.615Z,70.10
2022-10-18T12:27:16.965Z,69.90
2022-10-18T12:29:09.101Z,69.80
2022-10-18T12:30:54.830Z,69.90
2022-10-18T12:32:34.562Z,69.80
2022-10-18T12:34:30.252Z,69.70
2022-10-18T12:36:20.964Z,69.70
2022-10-18T12:38:15.788Z,69.80
2022-10-18T12:40:12.438Z,70.00
2022-10-18T12:41:49.459Z,70.00
2022-10-18T12:43:27.640Z,69.90
2022-10-18T12:45:19.140Z,69.30
2022-10-18T12:46:57.520Z,69.00
2022-10-18T12:48:38.661Z,69.20
2022-10-18T12:50:36.093Z,68.90
2022-10-18T12:52:24.162Z,68.80
2022-10-18T12:54:12.655Z,68.60
2022-10-18T12:55:49.720Z,67.80
2022-10-18T12:57:24.992Z,67.90
2022-10-18T12:59:53.735Z,68.00
2022-10-18T13:02:20.696Z,68.10
2022-10-18T13:03:58.543Z,68.60
2022-10-18T13:05:58.430Z,67.90
2022-10-18T13:07:42.953Z,68.00
2022-10-18T13:09:22.327Z,67.60
2022-10-18T13:11:36.770Z,66.30
2022-10-18T13:13:40.628Z,65.80
2022-10-18T13:15:40.542Z,66.00
2022-10-18T13:17:30.060Z,65.70
2022-10-18T13:19:23.262Z,65.70
2022-10-18T13:21:12.923Z,65.70
2022-10-18T13:23:04.549Z,65.80
2022-10-18T13:24:45.823Z,66.00
2022-10-18T13:26:35.179Z,66.00
2022-10-18T13:28:36.187Z,65.90
2022-10-18T13:30:49.599Z,65.80
2022-10-18T13:32:33.212Z,65.00
2022-10-18T13:34:28.053Z,65.70
2022-10-18T13:36:04.272Z,65.40
2022-10-18T13:37:38.228Z,65.70
2022-10-18T13:39:20.996Z,65.40
2022-10-18T13:41:03.807Z,64.90
2022-10-18T13:42:37.352Z,64.90
2022-10-18T13:44:25.074Z,64.90
2022-10-18T13:46:00.238Z,64.30
2022-10-18T13:47:40.199Z,64.30
2022-10-18T13:49:35.253Z,63.90
2022-10-18T13:51:36.456Z,64.20
2022-10-18T13:53:44.159Z,64.40
2022-10-18T13:55:44.643Z,64.30
2022-10-18T13:57:33.468Z,63.80
2022-10-18T13:59:52.818Z,63.50
2022-10-18T14:01:42.448Z,63.40
2022-10-18T14:03:57.658Z,64.10
2022-10-18T14:05:56.308Z,62.90
2022-10-18T14:07:30.283Z,61.70
2022-10-18T14:09:19.601Z,63.70
2022-10-18T14:11:05.979Z,62.90
2022-10-18T14:12:45.107Z,62.80
2022-10-18T14:14:26.522Z,63.00
2022-10-18T14:16:10.664Z,63.20
2022-10-18T14:17:50.392Z,63.50
2022-10-18T14:19:33.260Z,63.60
2022-10-18T14:21:16.085Z,63.80
2022-10-18T14:23:03.264Z,62.10
2022-10-18T14:24:39.563Z,61.20
2022-10-18T14:26:16.718Z,61.80
2022-10-18T14:27:53.682Z,61.70
2022-10-18T14:29:27.849Z,60.80
2022-10-18T14:31:06.198Z,61.00
2022-10-18T14:32:51.332Z,61.00
2022-10-18T14:34:25.249Z,60.40
2022-10-18T14:36:10.355Z,61.30
2022-10-18T14:37:49.747Z,61.70
2022-10-18T14:39:29.055Z,61.70
2022-10-18T14:41:16.422Z,61.80
2022-10-18T14:42:50.137Z,61.80
2022-10-18T14:44:28.231Z,62.00
2022-10-18T14:46:19.170Z,62.20
2022-10-18T14:47:53.811Z,62.30
2022-10-18T14:49:27.883Z,62.10
2022-10-18T14:51:03.577Z,62.10
2022-10-18T14:52:37.095Z,62.20
2022-10-18T14:54:17.370Z,62.20
2022-10-18T14:56:00.697Z,62.30
2022-10-18T14:57:38.111Z,62.30
2022-10-18T14:59:19.574Z,62.40
2022-10-18T15:00:54.157Z,62.60
2022-10-18T15:02:30.862Z,62.50
2022-10-18T15:04:11.208Z,62.50
2022-10-18T15:05:56.147Z,62.40
2022-10-18T15:07:30.346Z,62.20
2022-10-18T15:09:06.548Z,62.20
2022-10-18T15:10:39.944Z,62.20
2022-10-18T15:12:16.706Z,62.30
2022-10-18T15:13:55.733Z,62.20
2022-10-18T15:15:33.703Z,62.10
2022-10-18T15:17:21.781Z,62.30
2022-10-18T15:19:08.055Z,62.20
2022-10-18T15:20:42.829Z,62.20
2022-10-18T15:22:31.778Z,62.30
2022-10-18T15:24:32.444Z,62.20
2022-10-18T15:26:10.985Z,62.40
2022-10-18T15:27:48.542Z,62.30
2022-10-18T15:29:24.718Z,62.40
2022-10-18T15:30:59.136Z,62.50
2022-10-18T15:32:33.207Z,62.40
2022-10-18T15:34:17.877Z,62.50
2022-10-18T15:35:53.064Z,62.50
2022-10-18T15:37:34.295Z,62.70
2022-10-18T15:39:15.501Z,62.70
2022-10-18T15:40:49.224Z,62.80
2022-10-18T15:42:40.607Z,62.70
2022-10-18T15:44:31.502Z,62.90
2022-10-18T15:46:07.056Z,62.80
2022-10-18T15:47:40.646Z,62.90
2022-10-18T15:49:58.454Z,62.70
2022-10-18T15:51:49.330Z,62.70
2022-10-18T15:53:46.084Z,62.70
2022-10-18T15:55:50.058Z,62.60
2022-10-18T15:57:27.799Z,62.70
2022-10-18T15:59:24.611Z,62.60
2022-10-18T16:01:04.304Z,62.70
2022-10-18T16:02:42.473Z,62.60
2022-10-18T16:04:25.249Z,62.70
2022-10-18T16:06:08.687Z,63.70
2022-10-18T16:07:47.309Z,62.80
2022-10-18T16:09:23.514Z,62.90
2022-10-18T16:10:57.316Z,62.80
2022-10-18T16:12:30.943Z,62.90
2022-10-18T16:14:04.561Z,63.00
2022-10-18T16:15:50.175Z,63.00
2022-10-18T16:17:27.296Z,63.00
2022-10-18T16:19:07.052Z,63.00
2022-10-18T16:20:43.341Z,63.00
2022-10-18T16:22:20.029Z,62.80
2022-10-18T16:23:54.192Z,62.60
2022-10-18T16:25:31.185Z,62.40
2022-10-18T16:27:09.641Z,62.20
2022-10-18T16:28:49.249Z,61.90
2022-10-18T16:30:35.758Z,61.90
2022-10-18T16:32:13.947Z,61.90
2022-10-18T16:33:48.955Z,61.80
2022-10-18T16:35:22.590Z,61.80
2022-10-18T16:36:56.884Z,61.70
2022-10-18T16:38:35.284Z,61.70
2022-10-18T16:40:24.877Z,61.50
2022-10-18T16:41:58.200Z,61.50
2022-10-18T16:43:32.292Z,61.40
2022-10-18T16:45:06.333Z,61.40
2022-10-18T16:46:40.827Z,61.30
2022-10-18T16:48:16.926Z,61.30
2022-10-18T16:49:50.381Z,61.20
2022-10-18T16:51:26.847Z,61.20
2022-10-18T16:53:00.271Z,61.10
2022-10-18T16:54:35.728Z,61.10
2022-10-18T16:56:16.824Z,61.00
2022-10-18T16:57:51.352Z,61.00
2022-10-18T16:59:28.733Z,60.90
2022-10-18T17:01:04.176Z,60.90
2022-10-18T17:02:40.223Z,60.80
2022-10-18T17:04:13.626Z,60.70
2022-10-18T17:05:47.130Z,60.70
2022-10-18T17:07:26.021Z,61.00
2022-10-18T17:09:00.716Z,61.10
2022-10-18T17:10:35.429Z,61.20
2022-10-18T17:12:08.680Z,61.10
2022-10-18T17:13:42.393Z,61.10
2022-10-18T17:15:16.210Z,61.10
2022-10-18T17:16:53.798Z,61.10
2022-10-18T17:18:35.821Z,61.10
2022-10-18T17:20:10.806Z,61.30
2022-10-18T17:21:44.360Z,61.20
2022-10-18T17:23:17.755Z,61.20
2022-10-18T17:24:51.488Z,61.10
2022-10-18T17:26:30.103Z,61.20
2022-10-18T17:28:07.568Z,61.10
2022-10-18T17:29:41.825Z,61.10
2022-10-18T17:31:16.615Z,61.10
2022-10-18T17:32:50.023Z,61.10
2022-10-18T17:34:26.904Z,61.10
2022-10-18T17:36:11.254Z,61.00
2022-10-18T17:37:51.841Z,61.00
2022-10-18T17:39:27.045Z,61.00
2022-10-18T17:41:00.534Z,60.80
2022-10-18T17:42:37.351Z,60.90
2022-10-18T17:44:14.880Z,60.90
2022-10-18T17:45:50.245Z,60.70
2022-10-18T17:47:28.091Z,60.90
2022-10-18T17:49:01.469Z,60.80
2022-10-18T17:50:35.523Z,60.80
2022-10-18T17:52:11.627Z,60.60
2022-10-18T17:53:45.340Z,60.50
2022-10-18T17:55:19.119Z,60.70
2022-10-18T17:56:53.885Z,60.50
2022-10-18T17:58:29.429Z,60.60
2022-10-18T18:00:03.713Z,60.50
2022-10-18T18:01:57.050Z,60.60
2022-10-18T18:03:30.639Z,60.40
2022-10-18T18:05:05.909Z,60.40
2022-10-18T18:06:40.158Z,60.40
2022-10-18T18:08:13.752Z,60.50
2022-10-18T18:09:47.831Z,60.50
2022-10-18T18:11:21.112Z,60.50
2022-10-18T18:12:54.510Z,60.50
2022-10-18T18:14:28.057Z,60.60
2022-10-18T18:16:15.959Z,60.60
2022-10-18T18:17:56.977Z,60.40
2022-10-18T18:19:32.399Z,60.50
2022-10-18T18:21:05.886Z,60.40
2022-10-18T18:22:41.754Z,60.40
2022-10-18T18:24:17.079Z,60.30
2022-10-18T18:25:57.321Z,60.30
2022-10-18T18:27:30.592Z,60.20
2022-10-18T18:29:04.304Z,60.30
2022-10-18T18:30:41.161Z,60.30
2022-10-18T18:32:14.909Z,60.40
2022-10-18T18:33:49.500Z,60.40
2022-10-18T18:35:22.779Z,60.50
2022-10-18T18:36:56.263Z,60.30
2022-10-18T18:38:30.424Z,60.40
2022-10-18T18:40:03.902Z,60.50
2022-10-18T18:41:38.376Z,60.40
2022-10-18T18:43:23.253Z,60.40
2022-10-18T18:44:57.232Z,60.40
2022-10-18T18:46:36.609Z,60.20
2022-10-18T18:48:16.363Z,60.40
2022-10-18T18:49:53.852Z,60.70
2022-10-18T18:51:28.052Z,60.80
2022-10-18T18:53:01.391Z,61.00
2022-10-18T18:54:34.732Z,60.90
2022-10-18T18:56:10.455Z,60.90
2022-10-18T18:57:44.050Z,61.00
2022-10-18T18:59:18.466Z,60.70
2022-10-18T19:00:52.081Z,60.60
2022-10-18T19:02:25.429Z,60.50
2022-10-18T19:04:01.011Z,60.40
2022-10-18T19:05:36.207Z,60.40
2022-10-18T19:07:09.812Z,60.30
2022-10-18T19:08:46.797Z,60.20
2022-10-18T19:10:20.255Z,60.10
2022-10-18T19:11:56.145Z,60.20
2022-10-18T19:13:29.819Z,60.30
2022-10-18T19:15:03.222Z,60.40
2022-10-18T19:16:39.125Z,60.50
2022-10-18T19:18:12.599Z,60.50
2022-10-18T19:19:46.600Z,60.60
2022-10-18T19:21:21.165Z,60.70
2022-10-18T19:22:54.607Z,60.70
2022-10-18T19:24:31.117Z,60.60
2022-10-18T19:26:10.828Z,60.50
2022-10-18T19:27:44.856Z,60.40
2022-10-18T19:29:21.427Z,60.50
2022-10-18T19:30:56.018Z,60.60
2022-10-18T19:34:10.577Z,60.30
2022-10-18T19:35:44.167Z,60.30
2022-10-18T19:37:19.375Z,60.20
2022-10-18T19:38:52.904Z,60.30
2022-10-18T19:40:26.638Z,60.40
2022-10-18T19:42:03.157Z,59.80
2022-10-18T19:43:36.225Z,60.50
2022-10-18T19:45:10.982Z,60.60
2022-10-18T19:46:44.851Z,60.60
2022-10-18T19:48:18.224Z,60.70
2022-10-18T19:49:52.619Z,60.70
2022-10-18T19:51:28.350Z,60.70
2022-10-18T19:53:03.656Z,60.90
2022-10-18T19:54:37.448Z,61.00
2022-10-18T19:56:19.222Z,60.90
2022-10-18T19:57:52.594Z,61.00
2022-10-18T19:59:26.196Z,61.10
2022-10-18T20:01:02.169Z,61.30
2022-10-18T20:02:35.892Z,61.20
2022-10-18T20:04:11.147Z,61.00
2022-10-18T20:05:44.468Z,61.00
2022-10-18T20:07:17.879Z,60.80
2022-10-18T20:08:53.273Z,60.50
2022-10-18T20:10:26.597Z,60.40
2022-10-18T20:11:59.793Z,60.30
2022-10-18T20:13:33.691Z,60.30
2022-10-18T20:15:08.814Z,60.40
2022-10-18T20:16:42.120Z,60.40
2022-10-18T20:18:16.799Z,60.40
2022-10-18T20:19:50.270Z,61.20
2022-10-18T20:21:23.696Z,61.20
2022-10-18T20:22:57.021Z,60.30
2022-10-18T20:24:31.939Z,60.50
2022-10-18T20:26:07.156Z,60.60
2022-10-18T20:27:40.456Z,60.70
2022-10-18T20:29:14.128Z,60.60
2022-10-18T20:30:46.672Z,60.60
2022-10-18T20:32:19.998Z,60.50
2022-10-18T20:33:59.275Z,60.40
2022-10-18T20:35:33.250Z,60.50
2022-10-18T20:37:06.815Z,60.40
2022-10-18T20:38:42.556Z,60.50
2022-10-18T20:40:17.899Z,60.70
2022-10-18T20:41:51.178Z,60.80
2022-10-18T20:43:23.739Z,60.70
2022-10-18T20:44:57.032Z,60.70
2022-10-18T20:46:33.335Z,60.60
2022-10-18T20:48:05.795Z,60.90
2022-10-18T20:49:39.127Z,60.90
2022-10-18T20:51:13.878Z,61.00
2022-10-18T20:52:51.026Z,61.10
2022-10-18T20:54:24.696Z,61.00
2022-10-18T20:56:06.968Z,61.10
2022-10-18T20:57:40.918Z,61.00
2022-10-18T20:59:14.672Z,61.00
2022-10-18T21:00:48.455Z,61.10
2022-10-18T21:02:21.746Z,61.00
2022-10-18T21:03:57.463Z,60.90
2022-10-18T21:05:30.171Z,60.90
2022-10-18T21:07:03.956Z,60.90
2022-10-18T21:08:37.672Z,60.90
2022-10-18T21:10:11.115Z,60.90
2022-10-18T21:11:49.256Z,60.90
2022-10-18T21:13:22.696Z,60.80
2022-10-18T21:14:56.158Z,60.80
2022-10-18T21:16:30.327Z,60.70